FLTA4: Red River, Fulton, AR

                                SHEF ID:       FLTA4     Red River nr Fulton
STATION TYPE: Stream Gauge
Regulating: Stage = 25.00, Flow = 143755

PRECIP STAGE RIV-FLOW VOLTAGE
in ft cfs volt
Ccp-Rev Ccp-Rev Ccp-Rev Ccp-Rev
(America/Chicago)
02/21 00:00 0.00 2.90 15984 12.30
02/21 01:00 0.00 2.86 15854 12.30
02/21 02:00 0.00 2.84 15789 12.20
02/21 03:00 0.00 2.81 15692 12.20
02/21 04:00 0.00 2.79 15628 12.20
02/21 05:00 0.00 2.75 15499 12.20
02/21 06:00 0.00 2.74 15468 12.20
02/21 07:00 0.00 2.71 15372 12.10
02/21 08:00 0.00 2.69 15308 12.20
02/21 09:00 0.00 2.67 15245 12.60
02/21 10:00 0.00 2.65 15182 13.20
02/21 11:00 0.00 2.65 15182 13.40
02/21 12:00 0.00 2.62 15088 13.10
02/21 13:00 0.00 2.57 14931 12.80
02/21 14:00 0.00 2.56 14900 12.90
02/21 15:00 0.00 2.51 14744 12.80
02/21 16:00 0.00 2.54 14837 12.80
02/21 17:00 0.00 2.49 14683 12.70
02/21 18:00 0.00 2.51 14744 12.70
02/21 19:00 0.00 2.50 14713 12.50
02/21 20:00 0.00 2.49 14683 12.40
02/21 21:00 0.00 2.47 14621 12.30
02/21 22:00 0.00 2.47 14621 12.30
02/21 23:00 0.00 2.45 14559 12.30
Data processed at Sun 22Feb2026 05:23 GMT

NOTICE: If you are parsing this page

Please convert to using our Data API. Starting early 2026 we will be migrating to: https://water.usace.army.mil with modern pages rendered in JavaScript. When this migration completes you will no longer be able to scrape this page! CWMSDataAPI (CDA)

Timeseries IDs (TSIDs)

TSIDs used from left to right in the data table
FULT.Precip-Inc.Total.1Hour.1Hour.Ccp-Rev
FULT.Stage.Inst.1Hour.0.Ccp-Rev
FULT.Flow.Inst.1Hour.0.Ccp-Rev
FULT.Volt-Battery.Inst.1Hour.0.Ccp-Rev

                            

All information presented herein is the property of the government of the United States of America and may be revised or deleted at any time without prior notice. Dissemination of this information without the expressed written consent of the Public Affairs Office, Tulsa District U.S. Army Corps of Engineers is strictly prohibited. These data are gathered electronically and, as presented, have NOT undergone any form of quality control. These data are NOT guaranteed to be valid or correct.